sensor_id;sensor_type;location;lat;lon;timestamp;pressure;altitude;pressure_sealevel;temperature;humidity
76011;BME280;64701;43.536;1.478;2023-03-01T00:10:01;100063.72;;;2.23;53.57
76011;BME280;64701;43.536;1.478;2023-03-01T02:12:17;99986.66;;;1.11;56.22
76011;BME280;64701;43.536;1.478;2023-03-01T02:14:43;99981.56;;;1.09;56.10
76011;BME280;64701;43.536;1.478;2023-03-01T02:17:09;99986.19;;;1.06;56.32
76011;BME280;64701;43.536;1.478;2023-03-01T02:19:39;99985.84;;;0.99;56.66
76011;BME280;64701;43.536;1.478;2023-03-01T02:22:19;99992.13;;;0.97;56.27
76011;BME280;64701;43.536;1.478;2023-03-01T02:27:38;99972.22;;;0.85;57.36
76011;BME280;64701;43.536;1.478;2023-03-01T02:30:05;99968.31;;;0.79;57.25
76011;BME280;64701;43.536;1.478;2023-03-01T02:32:31;99966.88;;;0.75;57.60
76011;BME280;64701;43.536;1.478;2023-03-01T02:34:57;99967.13;;;0.72;57.57
76011;BME280;64701;43.536;1.478;2023-03-01T02:37:22;99958.81;;;0.67;58.26
76011;BME280;64701;43.536;1.478;2023-03-01T02:39:59;99954.09;;;0.61;58.62
76011;BME280;64701;43.536;1.478;2023-03-01T02:42:31;99956.22;;;0.56;58.59
76011;BME280;64701;43.536;1.478;2023-03-01T02:44:58;99947.94;;;0.51;58.71
76011;BME280;64701;43.536;1.478;2023-03-01T02:47:24;99936.09;;;0.47;59.18
76011;BME280;64701;43.536;1.478;2023-03-01T02:49:49;99939.84;;;0.43;59.78
76011;BME280;64701;43.536;1.478;2023-03-01T02:52:26;99934.06;;;0.39;60.06
76011;BME280;64701;43.536;1.478;2023-03-01T02:55:26;99944.47;;;0.39;59.52
76011;BME280;64701;43.536;1.478;2023-03-01T02:57:46;99943.66;;;0.38;59.39
76011;BME280;64701;43.536;1.478;2023-03-01T03:00:17;99946.25;;;0.38;58.96
76011;BME280;64701;43.536;1.478;2023-03-01T03:02:47;99939.38;;;0.37;59.15
76011;BME280;64701;43.536;1.478;2023-03-01T03:07:40;99937.97;;;0.33;58.99
76011;BME280;64701;43.536;1.478;2023-03-01T03:10:07;99936.41;;;0.31;59.05
76011;BME280;64701;43.536;1.478;2023-03-01T03:12:32;99941.88;;;0.28;59.78
76011;BME280;64701;43.536;1.478;2023-03-01T03:14:57;99935.94;;;0.26;59.34
76011;BME280;64701;43.536;1.478;2023-03-01T03:17:23;99930.97;;;0.23;59.79
76011;BME280;64701;43.536;1.478;2023-03-01T03:19:48;99931.09;;;0.21;59.27
76011;BME280;64701;43.536;1.478;2023-03-01T03:22:13;99935.72;;;0.18;59.73
76011;BME280;64701;43.536;1.478;2023-03-01T03:24:39;99935.09;;;0.14;60.07
76011;BME280;64701;43.536;1.478;2023-03-01T03:27:05;99930.13;;;0.11;60.52
76011;BME280;64701;43.536;1.478;2023-03-01T03:29:30;99924.09;;;0.11;59.74
76011;BME280;64701;43.536;1.478;2023-03-01T03:31:56;99931.06;;;0.10;60.25
76011;BME280;64701;43.536;1.478;2023-03-01T03:34:21;99936.28;;;0.10;59.72
76011;BME280;64701;43.536;1.478;2023-03-01T03:36:46;99929.50;;;0.08;60.47
76011;BME280;64701;43.536;1.478;2023-03-01T03:39:11;99923.72;;;0.04;61.17
76011;BME280;64701;43.536;1.478;2023-03-01T03:41:37;99925.38;;;0.05;61.05
76011;BME280;64701;43.536;1.478;2023-03-01T03:44:02;99921.94;;;0.05;60.70
76011;BME280;64701;43.536;1.478;2023-03-01T03:46:27;99923.72;;;0.04;60.69
76011;BME280;64701;43.536;1.478;2023-03-01T03:48:52;99920.28;;;0.04;60.70
76011;BME280;64701;43.536;1.478;2023-03-01T03:51:18;99927.97;;;0.05;59.88
76011;BME280;64701;43.536;1.478;2023-03-01T03:53:43;99923.72;;;0.04;59.74
76011;BME280;64701;43.536;1.478;2023-03-01T03:56:09;99923.00;;;0.02;60.25
76011;BME280;64701;43.536;1.478;2023-03-01T03:58:35;99918.72;;;0.01;60.45
76011;BME280;64701;43.536;1.478;2023-03-01T04:01:00;99917.09;;;0.00;60.13
76011;BME280;64701;43.536;1.478;2023-03-01T04:03:26;99918.97;;;-0.02;60.03
76011;BME280;64701;43.536;1.478;2023-03-01T04:05:52;99912.09;;;-0.03;60.22
76011;BME280;64701;43.536;1.478;2023-03-01T04:08:18;99918.34;;;-0.06;60.19
76011;BME280;64701;43.536;1.478;2023-03-01T04:10:46;99917.56;;;-0.06;60.31
76011;BME280;64701;43.536;1.478;2023-03-01T04:13:13;99919.44;;;-0.08;60.07
76011;BME280;64701;43.536;1.478;2023-03-01T04:15:39;99917.75;;;-0.09;60.79
76011;BME280;64701;43.536;1.478;2023-03-01T04:18:05;99920.25;;;-0.08;59.52
76011;BME280;64701;43.536;1.478;2023-03-01T04:20:32;99915.16;;;-0.09;60.47
76011;BME280;64701;43.536;1.478;2023-03-01T04:22:59;99916.09;;;-0.10;60.76
76011;BME280;64701;43.536;1.478;2023-03-01T04:25:33;99910.91;;;-0.10;59.76
76011;BME280;64701;43.536;1.478;2023-03-01T04:27:58;99906.75;;;-0.13;60.45
76011;BME280;64701;43.536;1.478;2023-03-01T04:30:24;99909.47;;;-0.14;60.33
76011;BME280;64701;43.536;1.478;2023-03-01T04:32:50;99906.97;;;-0.16;60.42
76011;BME280;64701;43.536;1.478;2023-03-01T04:35:15;99902.84;;;-0.18;60.77
76011;BME280;64701;43.536;1.478;2023-03-01T04:37:40;99895.97;;;-0.19;61.02
76011;BME280;64701;43.536;1.478;2023-03-01T04:40:06;99896.19;;;-0.22;61.33
76011;BME280;64701;43.536;1.478;2023-03-01T04:42:38;99900.69;;;-0.24;61.41
76011;BME280;64701;43.536;1.478;2023-03-01T04:45:03;99899.97;;;-0.26;61.34
76011;BME280;64701;43.536;1.478;2023-03-01T04:47:38;99894.97;;;-0.29;61.13
76011;BME280;64701;43.536;1.478;2023-03-01T04:50:03;99892.38;;;-0.29;61.03
76011;BME280;64701;43.536;1.478;2023-03-01T04:52:28;99894.97;;;-0.29;61.63
76011;BME280;64701;43.536;1.478;2023-03-01T04:54:53;99892.38;;;-0.29;60.31
76011;BME280;64701;43.536;1.478;2023-03-01T04:57:19;99896.88;;;-0.31;60.84
76011;BME280;64701;43.536;1.478;2023-03-01T04:59:44;99904.22;;;-0.36;61.09
76011;BME280;64701;43.536;1.478;2023-03-01T05:02:10;99904.41;;;-0.39;60.46
76011;BME280;64701;43.536;1.478;2023-03-01T05:04:35;99902.75;;;-0.41;60.20
76011;BME280;64701;43.536;1.478;2023-03-01T05:07:00;99910.69;;;-0.42;60.25
76011;BME280;64701;43.536;1.478;2023-03-01T05:09:25;99911.00;;;-0.47;60.88
76011;BME280;64701;43.536;1.478;2023-03-01T05:11:51;99903.44;;;-0.50;60.86
76011;BME280;64701;43.536;1.478;2023-03-01T05:14:16;99909.69;;;-0.52;60.64
76011;BME280;64701;43.536;1.478;2023-03-01T05:16:42;99902.00;;;-0.54;59.99
76011;BME280;64701;43.536;1.478;2023-03-01T05:19:07;99898.78;;;-0.57;60.75
76011;BME280;64701;43.536;1.478;2023-03-01T05:21:41;99901.50;;;-0.59;60.33
76011;BME280;64701;43.536;1.478;2023-03-01T05:24:26;99903.41;;;-0.61;61.14
76011;BME280;64701;43.536;1.478;2023-03-01T05:26:52;99904.44;;;-0.63;60.40
76011;BME280;64701;43.536;1.478;2023-03-01T05:29:18;99894.13;;;-0.65;60.53
76011;BME280;64701;43.536;1.478;2023-03-01T05:31:44;99900.41;;;-0.67;60.31
76011;BME280;64701;43.536;1.478;2023-03-01T05:34:09;99899.56;;;-0.68;60.72
76011;BME280;64701;43.536;1.478;2023-03-01T05:36:37;99898.00;;;-0.70;61.19
76011;BME280;64701;43.536;1.478;2023-03-01T05:39:03;99892.22;;;-0.74;61.27
76011;BME280;64701;43.536;1.478;2023-03-01T05:41:28;99895.03;;;-0.77;60.97
76011;BME280;64701;43.536;1.478;2023-03-01T05:43:54;99894.31;;;-0.79;61.65
76011;BME280;64701;43.536;1.478;2023-03-01T05:46:19;99899.63;;;-0.80;61.34
76011;BME280;64701;43.536;1.478;2023-03-01T05:48:44;99895.47;;;-0.83;61.78
76011;BME280;64701;43.536;1.478;2023-03-01T05:51:10;99896.44;;;-0.84;61.96
76011;BME280;64701;43.536;1.478;2023-03-01T05:53:35;99888.00;;;-0.88;62.09
76011;BME280;64701;43.536;1.478;2023-03-01T05:56:03;99883.66;;;-0.87;62.71
76011;BME280;64701;43.536;1.478;2023-03-01T05:58:28;99893.22;;;-0.88;62.95
76011;BME280;64701;43.536;1.478;2023-03-01T06:00:53;99888.13;;;-0.89;62.95
76011;BME280;64701;43.536;1.478;2023-03-01T06:03:19;99892.50;;;-0.90;63.33
76011;BME280;64701;43.536;1.478;2023-03-01T06:05:44;99888.13;;;-0.89;63.28
76011;BME280;64701;43.536;1.478;2023-03-01T06:08:10;99892.50;;;-0.90;63.31
76011;BME280;64701;43.536;1.478;2023-03-01T06:10:36;99888.25;;;-0.91;63.77
76011;BME280;64701;43.536;1.478;2023-03-01T06:13:01;99887.41;;;-0.91;63.65
76011;BME280;64701;43.536;1.478;2023-03-01T06:15:27;99894.28;;;-0.90;63.10
76011;BME280;64701;43.536;1.478;2023-03-01T06:17:53;99891.69;;;-0.90;63.23
76011;BME280;64701;43.536;1.478;2023-03-01T06:20:20;99892.59;;;-0.91;63.89
76011;BME280;64701;43.536;1.478;2023-03-01T06:22:46;99890.94;;;-0.92;63.87
76011;BME280;64701;43.536;1.478;2023-03-01T06:25:13;99895.31;;;-0.93;63.88
76011;BME280;64701;43.536;1.478;2023-03-01T06:27:39;99892.81;;;-0.94;63.81
76011;BME280;64701;43.536;1.478;2023-03-01T06:30:05;99887.63;;;-0.94;63.46
76011;BME280;64701;43.536;1.478;2023-03-01T06:32:31;99890.22;;;-0.94;63.34
76011;BME280;64701;43.536;1.478;2023-03-01T06:34:56;99886.69;;;-0.93;63.18
76011;BME280;64701;43.536;1.478;2023-03-01T06:37:23;99888.44;;;-0.94;63.45
76011;BME280;64701;43.536;1.478;2023-03-01T06:39:49;99882.41;;;-0.94;63.26
76011;BME280;64701;43.536;1.478;2023-03-01T06:42:14;99882.31;;;-0.93;63.47
76011;BME280;64701;43.536;1.478;2023-03-01T06:44:39;99885.94;;;-0.95;63.68
76011;BME280;64701;43.536;1.478;2023-03-01T06:47:04;99878.16;;;-0.95;64.15
76011;BME280;64701;43.536;1.478;2023-03-01T06:49:30;99882.22;;;-0.91;63.61
76011;BME280;64701;43.536;1.478;2023-03-01T06:51:55;99888.13;;;-0.89;63.51
76011;BME280;64701;43.536;1.478;2023-03-01T06:54:21;99888.00;;;-0.88;63.83
76011;BME280;64701;43.536;1.478;2023-03-01T06:56:49;99887.81;;;-0.85;63.52
76011;BME280;64701;43.536;1.478;2023-03-01T06:59:15;99882.47;;;-0.83;64.92
76011;BME280;64701;43.536;1.478;2023-03-01T07:01:40;99893.59;;;-0.81;64.42
76011;BME280;64701;43.536;1.478;2023-03-01T07:04:06;99891.50;;;-0.76;63.78
76011;BME280;64701;43.536;1.478;2023-03-01T07:06:31;99887.75;;;-0.72;63.39
76011;BME280;64701;43.536;1.478;2023-03-01T07:08:56;99884.81;;;-0.67;63.01
76011;BME280;64701;43.536;1.478;2023-03-01T07:11:22;99888.09;;;-0.65;63.62
76011;BME280;64701;43.536;1.478;2023-03-01T07:13:48;99897.47;;;-0.63;63.95
76011;BME280;64701;43.536;1.478;2023-03-01T07:16:13;99893.69;;;-0.59;63.38
76011;BME280;64701;43.536;1.478;2023-03-01T07:18:39;99907.22;;;-0.54;63.12
76011;BME280;64701;43.536;1.478;2023-03-01T07:21:06;99893.03;;;-0.50;63.81
76011;BME280;64701;43.536;1.478;2023-03-01T07:23:31;99891.88;;;-0.46;64.10
76011;BME280;64701;43.536;1.478;2023-03-01T07:25:56;99892.13;;;-0.37;63.69
76011;BME280;64701;43.536;1.478;2023-03-01T07:28:22;99890.03;;;-0.32;62.92
76011;BME280;64701;43.536;1.478;2023-03-01T07:30:47;99896.53;;;-0.27;63.74
76011;BME280;64701;43.536;1.478;2023-03-01T07:33:13;99897.13;;;-0.23;63.87
76011;BME280;64701;43.536;1.478;2023-03-01T07:35:38;99899.53;;;-0.20;64.61
76011;BME280;64701;43.536;1.478;2023-03-01T07:38:03;99913.00;;;-0.15;63.72
76011;BME280;64701;43.536;1.478;2023-03-01T07:40:28;99912.56;;;-0.09;64.15
76011;BME280;64701;43.536;1.478;2023-03-01T07:42:57;99907.13;;;-0.06;64.65
76011;BME280;64701;43.536;1.478;2023-03-01T07:45:23;99913.53;;;0.01;64.10
76011;BME280;64701;43.536;1.478;2023-03-01T07:47:49;99907.84;;;0.07;63.58
76011;BME280;64701;43.536;1.478;2023-03-01T07:50:15;99918.53;;;0.15;63.34
76011;BME280;64701;43.536;1.478;2023-03-01T07:52:40;99920.78;;;0.20;64.07
76011;BME280;64701;43.536;1.478;2023-03-01T07:55:05;99921.03;;;0.28;63.22
76011;BME280;64701;43.536;1.478;2023-03-01T07:57:31;99914.28;;;0.36;62.96
76011;BME280;64701;43.536;1.478;2023-03-01T07:59:56;99918.09;;;0.44;62.99
76011;BME280;64701;43.536;1.478;2023-03-01T08:02:21;99922.72;;;0.51;62.52
76011;BME280;64701;43.536;1.478;2023-03-01T08:04:47;99925.41;;;0.61;61.61
76011;BME280;64701;43.536;1.478;2023-03-01T08:07:12;99920.47;;;0.69;62.09
76011;BME280;64701;43.536;1.478;2023-03-01T08:09:37;99917.25;;;0.76;61.91
76011;BME280;64701;43.536;1.478;2023-03-01T08:12:03;99914.03;;;0.84;61.90
76011;BME280;64701;43.536;1.478;2023-03-01T08:14:29;99915.69;;;0.96;61.76
76011;BME280;64701;43.536;1.478;2023-03-01T08:16:54;99910.69;;;1.04;62.37
76011;BME280;64701;43.536;1.478;2023-03-01T08:19:20;99909.72;;;1.16;61.24
76011;BME280;64701;43.536;1.478;2023-03-01T08:21:45;99905.19;;;1.30;60.81
76011;BME280;64701;43.536;1.478;2023-03-01T08:24:10;99909.16;;;1.45;60.82
76011;BME280;64701;43.536;1.478;2023-03-01T08:26:36;99908.44;;;1.54;61.39
76011;BME280;64701;43.536;1.478;2023-03-01T08:29:02;99905.50;;;1.68;60.47
76011;BME280;64701;43.536;1.478;2023-03-01T08:31:29;99909.22;;;1.86;59.54
76011;BME280;64701;43.536;1.478;2023-03-01T08:33:55;99904.41;;;2.02;59.71
76011;BME280;64701;43.536;1.478;2023-03-01T08:36:22;99905.44;;;2.21;59.08
76011;BME280;64701;43.536;1.478;2023-03-01T08:38:47;99906.50;;;2.39;58.70
76011;BME280;64701;43.536;1.478;2023-03-01T08:41:13;99900.94;;;2.53;58.13
76011;BME280;64701;43.536;1.478;2023-03-01T08:43:38;99902.53;;;2.75;58.21
76011;BME280;64701;43.536;1.478;2023-03-01T08:46:03;99892.25;;;2.93;57.11
76011;BME280;64701;43.536;1.478;2023-03-01T08:48:29;99893.00;;;3.14;56.80
76011;BME280;64701;43.536;1.478;2023-03-01T08:50:54;99894.13;;;3.40;56.33
76011;BME280;64701;43.536;1.478;2023-03-01T08:53:20;99881.75;;;3.61;55.47
76011;BME280;64701;43.536;1.478;2023-03-01T09:16:26;99884.81;;;5.85;49.30
76011;BME280;64701;43.536;1.478;2023-03-01T09:18:52;99876.50;;;6.15;48.70
76011;BME280;64701;43.536;1.478;2023-03-01T09:21:19;99871.13;;;6.51;49.50
76011;BME280;64701;43.536;1.478;2023-03-01T09:23:46;99869.78;;;6.73;46.71
76011;BME280;64701;43.536;1.478;2023-03-01T09:26:13;99862.78;;;7.06;47.31
76011;BME280;64701;43.536;1.478;2023-03-01T09:28:39;99866.50;;;7.61;48.41
76011;BME280;64701;43.536;1.478;2023-03-01T09:31:06;99854.97;;;7.70;44.22
76011;BME280;64701;43.536;1.478;2023-03-01T09:33:32;99865.00;;;8.07;45.87
76011;BME280;64701;43.536;1.478;2023-03-01T09:35:58;99853.56;;;8.47;44.68
76011;BME280;64701;43.536;1.478;2023-03-01T09:38:24;99847.13;;;8.89;44.24
76011;BME280;64701;43.536;1.478;2023-03-01T10:04:10;99801.78;;;13.02;38.79
76011;BME280;64701;43.536;1.478;2023-03-01T10:06:36;99801.09;;;13.61;35.00
76011;BME280;64701;43.536;1.478;2023-03-01T10:16:43;99788.09;;;15.26;30.56
76011;BME280;64701;43.536;1.478;2023-03-01T10:19:22;99784.94;;;15.42;31.15
76011;BME280;64701;43.536;1.478;2023-03-01T10:21:48;99782.88;;;15.93;33.49
76011;BME280;64701;43.536;1.478;2023-03-01T10:24:16;99783.03;;;16.60;30.37
76011;BME280;64701;43.536;1.478;2023-03-01T10:29:10;99777.47;;;17.21;29.10
76011;BME280;64701;43.536;1.478;2023-03-01T10:34:02;99773.66;;;17.40;29.43
76011;BME280;64701;43.536;1.478;2023-03-01T10:36:28;99765.72;;;18.22;28.37
76011;BME280;64701;43.536;1.478;2023-03-01T11:23:15;99698.88;;;25.84;17.57
76011;BME280;64701;43.536;1.478;2023-03-01T11:25:42;99696.81;;;25.42;19.22
76011;BME280;64701;43.536;1.478;2023-03-01T11:28:10;99682.75;;;26.16;17.43
76011;BME280;64701;43.536;1.478;2023-03-01T11:30:48;99683.28;;;26.18;15.97
76011;BME280;64701;43.536;1.478;2023-03-01T11:33:18;99680.75;;;26.88;18.17
76011;BME280;64701;43.536;1.478;2023-03-01T11:35:49;99682.88;;;26.06;17.47
76011;BME280;64701;43.536;1.478;2023-03-01T11:38:25;99679.13;;;25.78;15.75
76011;BME280;64701;43.536;1.478;2023-03-01T11:41:01;99675.50;;;26.12;16.04
76011;BME280;64701;43.536;1.478;2023-03-01T11:47:03;99660.19;;;26.45;14.36
76011;BME280;64701;43.536;1.478;2023-03-01T12:01:33;99634.53;;;27.39;17.71
76011;BME280;64701;43.536;1.478;2023-03-01T12:04:19;99625.00;;;28.24;15.99
76011;BME280;64701;43.536;1.478;2023-03-01T12:07:06;99610.59;;;29.04;14.91
76011;BME280;64701;43.536;1.478;2023-03-01T12:15:22;99609.28;;;27.93;16.47
76011;BME280;64701;43.536;1.478;2023-03-01T12:43:27;99583.78;;;27.02;15.56
76011;BME280;64701;43.536;1.478;2023-03-01T12:48:36;99568.75;;;27.92;15.31
76011;BME280;64701;43.536;1.478;2023-03-01T12:51:08;99571.81;;;29.07;13.91
76011;BME280;64701;43.536;1.478;2023-03-01T12:53:36;99567.75;;;28.73;13.80
76011;BME280;64701;43.536;1.478;2023-03-01T12:56:08;99566.38;;;29.07;14.85
76011;BME280;64701;43.536;1.478;2023-03-01T13:06:15;99551.50;;;30.87;14.43
76011;BME280;64701;43.536;1.478;2023-03-01T13:09:04;99553.13;;;31.43;14.12
76011;BME280;64701;43.536;1.478;2023-03-01T13:11:32;99547.88;;;31.67;14.07
76011;BME280;64701;43.536;1.478;2023-03-01T13:16:43;99552.69;;;31.70;12.41
76011;BME280;64701;43.536;1.478;2023-03-01T13:19:13;99539.31;;;30.07;12.68
76011;BME280;64701;43.536;1.478;2023-03-01T13:21:40;99549.03;;;31.19;13.78
76011;BME280;64701;43.536;1.478;2023-03-01T13:24:52;99540.00;;;29.25;12.49
76011;BME280;64701;43.536;1.478;2023-03-01T13:32:26;99534.91;;;32.06;11.45
76011;BME280;64701;43.536;1.478;2023-03-01T13:34:58;99527.28;;;33.18;11.21
76011;BME280;64701;43.536;1.478;2023-03-01T13:37:27;99523.41;;;34.32;12.33
76011;BME280;64701;43.536;1.478;2023-03-01T13:39:55;99521.78;;;34.87;10.29
76011;BME280;64701;43.536;1.478;2023-03-01T13:42:36;99520.50;;;34.69;11.61
76011;BME280;64701;43.536;1.478;2023-03-01T13:45:03;99510.13;;;34.34;10.93
76011;BME280;64701;43.536;1.478;2023-03-01T13:47:29;99518.06;;;35.58;12.06
76011;BME280;64701;43.536;1.478;2023-03-01T13:49:58;99517.00;;;35.78;11.69
76011;BME280;64701;43.536;1.478;2023-03-01T13:52:43;99513.38;;;35.58;9.50
76011;BME280;64701;43.536;1.478;2023-03-01T13:55:20;99511.19;;;36.76;11.05
76011;BME280;64701;43.536;1.478;2023-03-01T13:57:47;99516.03;;;36.83;11.49
76011;BME280;64701;43.536;1.478;2023-03-01T14:00:35;99501.47;;;36.24;9.94
76011;BME280;64701;43.536;1.478;2023-03-01T14:03:01;99503.50;;;36.89;10.24
76011;BME280;64701;43.536;1.478;2023-03-01T14:05:28;99499.41;;;37.47;9.45
76011;BME280;64701;43.536;1.478;2023-03-01T14:07:55;99498.91;;;36.96;8.62
76011;BME280;64701;43.536;1.478;2023-03-01T14:10:20;99507.91;;;37.88;9.85
76011;BME280;64701;43.536;1.478;2023-03-01T14:12:49;99495.38;;;37.18;8.04
76011;BME280;64701;43.536;1.478;2023-03-01T14:15:32;99491.19;;;37.05;8.55
76011;BME280;64701;43.536;1.478;2023-03-01T14:20:28;99493.03;;;35.00;9.64
76011;BME280;64701;43.536;1.478;2023-03-01T14:22:56;99486.56;;;34.77;9.29
76011;BME280;64701;43.536;1.478;2023-03-01T14:25:23;99493.91;;;34.45;10.00
76011;BME280;64701;43.536;1.478;2023-03-01T14:28:13;99501.75;;;33.91;10.58
76011;BME280;64701;43.536;1.478;2023-03-01T14:30:46;99495.28;;;34.11;10.01
76011;BME280;64701;43.536;1.478;2023-03-01T14:36:05;99486.28;;;33.98;10.20
76011;BME280;64701;43.536;1.478;2023-03-01T14:40:57;99484.13;;;33.68;10.42
76011;BME280;64701;43.536;1.478;2023-03-01T14:43:23;99485.97;;;33.15;10.27
76011;BME280;64701;43.536;1.478;2023-03-01T14:45:51;99496.91;;;32.25;11.35
76011;BME280;64701;43.536;1.478;2023-03-01T14:48:16;99488.25;;;31.73;11.51
76011;BME280;64701;43.536;1.478;2023-03-01T14:50:43;99484.47;;;30.80;11.50
76011;BME280;64701;43.536;1.478;2023-03-01T14:53:20;99480.31;;;30.66;11.28
76011;BME280;64701;43.536;1.478;2023-03-01T14:55:47;99487.28;;;31.01;11.94
76011;BME280;64701;43.536;1.478;2023-03-01T14:58:15;99478.69;;;31.20;12.34
76011;BME280;64701;43.536;1.478;2023-03-01T15:01:22;99485.81;;;30.49;12.54
76011;BME280;64701;43.536;1.478;2023-03-01T15:03:36;99484.53;;;30.20;12.31
76011;BME280;64701;43.536;1.478;2023-03-01T15:06:02;99485.59;;;29.28;12.88
76011;BME280;64701;43.536;1.478;2023-03-01T15:08:29;99477.81;;;29.44;13.16
76011;BME280;64701;43.536;1.478;2023-03-01T15:13:38;99480.81;;;26.36;14.39
76011;BME280;64701;43.536;1.478;2023-03-01T15:18:29;99481.78;;;26.26;15.45
76011;BME280;64701;43.536;1.478;2023-03-01T15:20:54;99480.16;;;24.98;15.92
76011;BME280;64701;43.536;1.478;2023-03-01T15:23:25;99483.34;;;24.42;16.58
76011;BME280;64701;43.536;1.478;2023-03-01T15:25:52;99474.09;;;23.65;16.73
76011;BME280;64701;43.536;1.478;2023-03-01T15:28:30;99485.66;;;22.30;18.18
76011;BME280;64701;43.536;1.478;2023-03-01T15:33:30;99499.75;;;20.34;19.61
76011;BME280;64701;43.536;1.478;2023-03-01T15:35:59;99495.31;;;19.09;21.09
76011;BME280;64701;43.536;1.478;2023-03-01T15:40:53;99495.66;;;17.44;22.36
76011;BME280;64701;43.536;1.478;2023-03-01T15:46:02;99499.41;;;15.78;24.46
76011;BME280;64701;43.536;1.478;2023-03-01T15:48:28;99494.94;;;14.81;25.48
76011;BME280;64701;43.536;1.478;2023-03-01T15:50:54;99491.25;;;14.57;26.06
76011;BME280;64701;43.536;1.478;2023-03-01T15:53:20;99498.75;;;14.67;25.45
76011;BME280;64701;43.536;1.478;2023-03-01T15:55:45;99502.41;;;14.16;26.07
76011;BME280;64701;43.536;1.478;2023-03-01T15:58:15;99509.84;;;13.70;26.53
76011;BME280;64701;43.536;1.478;2023-03-01T16:00:42;99506.38;;;13.63;26.51
76011;BME280;64701;43.536;1.478;2023-03-01T16:03:08;99502.44;;;13.14;27.60
76011;BME280;64701;43.536;1.478;2023-03-01T16:05:35;99508.84;;;12.74;28.29
76011;BME280;64701;43.536;1.478;2023-03-01T16:08:01;99508.00;;;12.60;27.86
76011;BME280;64701;43.536;1.478;2023-03-01T16:10:27;99509.47;;;12.62;28.38
76011;BME280;64701;43.536;1.478;2023-03-01T16:12:53;99505.75;;;12.37;28.40
76011;BME280;64701;43.536;1.478;2023-03-01T16:15:22;99511.47;;;12.27;28.10
76011;BME280;64701;43.536;1.478;2023-03-01T16:17:48;99522.66;;;11.97;29.17
76011;BME280;64701;43.536;1.478;2023-03-01T16:20:13;99521.56;;;11.78;29.17
76011;BME280;64701;43.536;1.478;2023-03-01T16:22:42;99527.19;;;11.55;30.42
76011;BME280;64701;43.536;1.478;2023-03-01T16:25:11;99521.34;;;11.32;28.87
76011;BME280;64701;43.536;1.478;2023-03-01T16:27:37;99523.56;;;11.28;29.18
76011;BME280;64701;43.536;1.478;2023-03-01T16:30:02;99518.84;;;10.89;31.17
76011;BME280;64701;43.536;1.478;2023-03-01T16:32:28;99516.75;;;10.78;31.02
76011;BME280;64701;43.536;1.478;2023-03-01T16:34:53;99525.41;;;10.66;30.37
76011;BME280;64701;43.536;1.478;2023-03-01T16:37:18;99528.81;;;10.38;31.54
76011;BME280;64701;43.536;1.478;2023-03-01T16:39:44;99524.44;;;10.09;32.30
76011;BME280;64701;43.536;1.478;2023-03-01T16:42:09;99523.69;;;9.94;32.95
76011;BME280;64701;43.536;1.478;2023-03-01T16:44:34;99519.25;;;9.80;32.54
76011;BME280;64701;43.536;1.478;2023-03-01T16:47:00;99527.34;;;9.57;34.09
76011;BME280;64701;43.536;1.478;2023-03-01T16:49:25;99524.09;;;9.40;32.82
76011;BME280;64701;43.536;1.478;2023-03-01T16:51:52;99521.53;;;9.32;33.78
76011;BME280;64701;43.536;1.478;2023-03-01T16:54:18;99526.81;;;9.32;32.31
76011;BME280;64701;43.536;1.478;2023-03-01T16:56:43;99527.19;;;9.29;34.08
76011;BME280;64701;43.536;1.478;2023-03-01T16:59:09;99534.47;;;9.27;33.56
76011;BME280;64701;43.536;1.478;2023-03-01T17:01:34;99530.84;;;8.99;34.32
76011;BME280;64701;43.536;1.478;2023-03-01T17:04:05;99538.94;;;8.97;32.76
76011;BME280;64701;43.536;1.478;2023-03-01T17:06:30;99545.03;;;8.98;33.65
76011;BME280;64701;43.536;1.478;2023-03-01T17:08:57;99543.19;;;8.84;35.31
76011;BME280;64701;43.536;1.478;2023-03-01T17:11:23;99552.47;;;8.80;35.09
76011;BME280;64701;43.536;1.478;2023-03-01T17:13:49;99553.19;;;8.74;35.11
76011;BME280;64701;43.536;1.478;2023-03-01T17:16:15;99560.88;;;8.60;34.35
76011;BME280;64701;43.536;1.478;2023-03-01T17:18:41;99563.50;;;8.46;36.15
76011;BME280;64701;43.536;1.478;2023-03-01T17:21:07;99561.44;;;8.33;35.16
76011;BME280;64701;43.536;1.478;2023-03-01T17:23:33;99563.50;;;8.15;35.75
76011;BME280;64701;43.536;1.478;2023-03-01T17:25:59;99568.16;;;8.05;35.27
76011;BME280;64701;43.536;1.478;2023-03-01T17:28:25;99573.16;;;8.00;36.15
76011;BME280;64701;43.536;1.478;2023-03-01T17:30:51;99573.00;;;7.93;36.73
76011;BME280;64701;43.536;1.478;2023-03-01T17:33:17;99576.56;;;7.77;37.07
76011;BME280;64701;43.536;1.478;2023-03-01T17:35:42;99577.41;;;7.78;37.22
76011;BME280;64701;43.536;1.478;2023-03-01T17:38:10;99582.53;;;7.71;36.22
76011;BME280;64701;43.536;1.478;2023-03-01T17:40:36;99575.31;;;7.65;37.07
76011;BME280;64701;43.536;1.478;2023-03-01T17:43:01;99582.25;;;7.58;36.80
76011;BME280;64701;43.536;1.478;2023-03-01T17:45:27;99579.78;;;7.57;35.94
76011;BME280;64701;43.536;1.478;2023-03-01T17:47:53;99585.25;;;7.47;36.99
76011;BME280;64701;43.536;1.478;2023-03-01T17:50:18;99575.41;;;7.41;37.01
76011;BME280;64701;43.536;1.478;2023-03-01T17:52:43;99578.72;;;7.35;37.08
76011;BME280;64701;43.536;1.478;2023-03-01T17:55:09;99581.84;;;7.30;36.93
76011;BME280;64701;43.536;1.478;2023-03-01T17:57:37;99579.38;;;7.29;36.34
76011;BME280;64701;43.536;1.478;2023-03-01T18:00:04;99587.50;;;7.19;37.49
76011;BME280;64701;43.536;1.478;2023-03-01T18:02:29;99591.78;;;7.12;38.22
76011;BME280;64701;43.536;1.478;2023-03-01T18:04:57;99602.31;;;7.04;38.98
76011;BME280;64701;43.536;1.478;2023-03-01T18:07:24;99595.59;;;7.02;37.51
76011;BME280;64701;43.536;1.478;2023-03-01T18:09:50;99604.47;;;7.01;37.32
76011;BME280;64701;43.536;1.478;2023-03-01T18:12:15;99602.50;;;6.94;37.36
76011;BME280;64701;43.536;1.478;2023-03-01T18:14:40;99605.28;;;6.93;37.26
76011;BME280;64701;43.536;1.478;2023-03-01T18:17:06;99610.59;;;6.85;38.29
76011;BME280;64701;43.536;1.478;2023-03-01T18:19:35;99613.53;;;6.82;38.17
76011;BME280;64701;43.536;1.478;2023-03-01T18:22:01;99609.59;;;6.78;38.05
76011;BME280;64701;43.536;1.478;2023-03-01T18:24:26;99608.25;;;6.74;38.19
76011;BME280;64701;43.536;1.478;2023-03-01T18:26:51;99615.66;;;6.70;38.52